sensor_id;sensor_type;location;lat;lon;timestamp;temperature;humidity
16674;DHT22;8450;52.654;10.326;2022-07-22T05:01:49;16.20;99.90
16674;DHT22;8450;52.654;10.326;2022-07-22T05:04:16;16.20;99.90
16674;DHT22;8450;52.654;10.326;2022-07-22T05:20:47;16.20;99.90
16674;DHT22;8450;52.654;10.326;2022-07-22T05:23:12;16.30;99.90
16674;DHT22;8450;52.654;10.326;2022-07-22T05:25:39;16.30;99.90
16674;DHT22;8450;52.654;10.326;2022-07-22T05:28:06;16.30;99.90
16674;DHT22;8450;52.654;10.326;2022-07-22T05:30:34;16.20;99.90
16674;DHT22;8450;52.654;10.326;2022-07-22T05:33:02;16.30;99.90
16674;DHT22;8450;52.654;10.326;2022-07-22T05:35:47;16.30;99.90
16674;DHT22;8450;52.654;10.326;2022-07-22T05:38:13;16.30;99.90
16674;DHT22;8450;52.654;10.326;2022-07-22T05:40:39;16.30;99.90
16674;DHT22;8450;52.654;10.326;2022-07-22T05:43:04;16.30;99.90
16674;DHT22;8450;52.654;10.326;2022-07-22T05:45:30;16.40;99.90
16674;DHT22;8450;52.654;10.326;2022-07-22T05:47:56;16.40;99.90
16674;DHT22;8450;52.654;10.326;2022-07-22T05:50:21;16.40;99.90
16674;DHT22;8450;52.654;10.326;2022-07-22T05:52:47;16.40;99.90
16674;DHT22;8450;52.654;10.326;2022-07-22T05:55:12;16.30;99.90
16674;DHT22;8450;52.654;10.326;2022-07-22T05:57:41;16.30;99.90
16674;DHT22;8450;52.654;10.326;2022-07-22T06:00:07;16.30;99.90
16674;DHT22;8450;52.654;10.326;2022-07-22T06:02:39;16.30;99.90
16674;DHT22;8450;52.654;10.326;2022-07-22T06:05:06;16.20;99.90
16674;DHT22;8450;52.654;10.326;2022-07-22T06:07:31;16.30;99.90
16674;DHT22;8450;52.654;10.326;2022-07-22T06:10:00;16.20;99.90
16674;DHT22;8450;52.654;10.326;2022-07-22T06:12:29;16.20;99.90
16674;DHT22;8450;52.654;10.326;2022-07-22T06:14:56;16.20;99.90
16674;DHT22;8450;52.654;10.326;2022-07-22T06:17:21;16.20;99.90
16674;DHT22;8450;52.654;10.326;2022-07-22T06:19:47;16.30;99.90
16674;DHT22;8450;52.654;10.326;2022-07-22T06:22:12;16.20;99.90
16674;DHT22;8450;52.654;10.326;2022-07-22T06:24:38;16.20;99.90
16674;DHT22;8450;52.654;10.326;2022-07-22T06:27:04;16.10;99.90
16674;DHT22;8450;52.654;10.326;2022-07-22T06:29:30;16.10;99.90
16674;DHT22;8450;52.654;10.326;2022-07-22T06:31:56;16.20;99.90
16674;DHT22;8450;52.654;10.326;2022-07-22T06:34:22;16.20;99.90
16674;DHT22;8450;52.654;10.326;2022-07-22T06:36:58;16.10;99.90
16674;DHT22;8450;52.654;10.326;2022-07-22T06:39:24;16.10;99.90
16674;DHT22;8450;52.654;10.326;2022-07-22T06:42:09;16.10;99.90
16674;DHT22;8450;52.654;10.326;2022-07-22T06:45:00;16.10;99.90
16674;DHT22;8450;52.654;10.326;2022-07-22T06:47:41;16.10;99.90
16674;DHT22;8450;52.654;10.326;2022-07-22T06:50:10;16.20;99.90
16674;DHT22;8450;52.654;10.326;2022-07-22T06:52:40;16.20;99.90
16674;DHT22;8450;52.654;10.326;2022-07-22T06:55:07;16.20;99.90
16674;DHT22;8450;52.654;10.326;2022-07-22T06:57:37;16.20;99.90
16674;DHT22;8450;52.654;10.326;2022-07-22T07:00:05;16.20;99.90
16674;DHT22;8450;52.654;10.326;2022-07-22T07:02:35;16.20;99.90
16674;DHT22;8450;52.654;10.326;2022-07-22T07:05:03;16.20;99.90
16674;DHT22;8450;52.654;10.326;2022-07-22T07:07:28;16.30;99.90
16674;DHT22;8450;52.654;10.326;2022-07-22T07:09:59;16.30;99.90
16674;DHT22;8450;52.654;10.326;2022-07-22T07:12:34;16.40;99.90
16674;DHT22;8450;52.654;10.326;2022-07-22T07:15:06;16.30;99.90
16674;DHT22;8450;52.654;10.326;2022-07-22T07:17:32;16.50;99.90
16674;DHT22;8450;52.654;10.326;2022-07-22T07:19:57;16.60;99.90
16674;DHT22;8450;52.654;10.326;2022-07-22T07:22:23;16.80;99.90
16674;DHT22;8450;52.654;10.326;2022-07-22T07:24:48;16.70;99.90
16674;DHT22;8450;52.654;10.326;2022-07-22T07:27:14;16.80;99.90
16674;DHT22;8450;52.654;10.326;2022-07-22T07:29:40;16.90;99.90
16674;DHT22;8450;52.654;10.326;2022-07-22T07:32:07;16.80;99.90
16674;DHT22;8450;52.654;10.326;2022-07-22T07:34:32;17.10;99.90
16674;DHT22;8450;52.654;10.326;2022-07-22T07:36:58;17.30;99.90
16674;DHT22;8450;52.654;10.326;2022-07-22T07:39:24;17.30;99.90
16674;DHT22;8450;52.654;10.326;2022-07-22T07:41:49;17.50;99.90
16674;DHT22;8450;52.654;10.326;2022-07-22T07:44:17;17.50;99.90
16674;DHT22;8450;52.654;10.326;2022-07-22T07:46:43;17.60;99.90
16674;DHT22;8450;52.654;10.326;2022-07-22T07:49:08;17.60;99.90
16674;DHT22;8450;52.654;10.326;2022-07-22T07:51:34;17.40;99.90
16674;DHT22;8450;52.654;10.326;2022-07-22T07:54:00;17.30;99.90
16674;DHT22;8450;52.654;10.326;2022-07-22T07:56:26;17.50;99.90
16674;DHT22;8450;52.654;10.326;2022-07-22T07:58:51;17.50;99.90
16674;DHT22;8450;52.654;10.326;2022-07-22T08:01:18;17.80;99.90
16674;DHT22;8450;52.654;10.326;2022-07-22T08:03:44;18.20;99.90
16674;DHT22;8450;52.654;10.326;2022-07-22T08:06:10;18.30;99.90
16674;DHT22;8450;52.654;10.326;2022-07-22T08:08:36;18.10;99.90
16674;DHT22;8450;52.654;10.326;2022-07-22T08:11:15;18.20;99.90
16674;DHT22;8450;52.654;10.326;2022-07-22T08:13:52;18.50;99.90
16674;DHT22;8450;52.654;10.326;2022-07-22T08:16:27;18.50;99.90
16674;DHT22;8450;52.654;10.326;2022-07-22T08:18:53;18.50;99.90
16674;DHT22;8450;52.654;10.326;2022-07-22T08:21:18;18.50;99.90
16674;DHT22;8450;52.654;10.326;2022-07-22T08:23:52;18.50;99.90
16674;DHT22;8450;52.654;10.326;2022-07-22T08:26:18;18.80;99.90
16674;DHT22;8450;52.654;10.326;2022-07-22T08:28:44;18.70;99.90
16674;DHT22;8450;52.654;10.326;2022-07-22T08:31:09;18.70;99.90
16674;DHT22;8450;52.654;10.326;2022-07-22T08:33:35;18.80;99.90
16674;DHT22;8450;52.654;10.326;2022-07-22T08:36:01;18.40;99.90
16674;DHT22;8450;52.654;10.326;2022-07-22T08:38:28;18.50;99.90
16674;DHT22;8450;52.654;10.326;2022-07-22T08:40:55;18.60;99.90
16674;DHT22;8450;52.654;10.326;2022-07-22T08:43:22;18.60;99.90
16674;DHT22;8450;52.654;10.326;2022-07-22T08:45:48;18.60;99.90
16674;DHT22;8450;52.654;10.326;2022-07-22T08:48:14;18.40;99.90
16674;DHT22;8450;52.654;10.326;2022-07-22T08:50:49;18.30;99.90
16674;DHT22;8450;52.654;10.326;2022-07-22T08:53:30;18.20;99.90
16674;DHT22;8450;52.654;10.326;2022-07-22T08:56:01;18.20;99.90
16674;DHT22;8450;52.654;10.326;2022-07-22T08:58:27;18.30;99.90
16674;DHT22;8450;52.654;10.326;2022-07-22T09:01:05;18.20;99.90
16674;DHT22;8450;52.654;10.326;2022-07-22T09:03:31;18.40;99.90
16674;DHT22;8450;52.654;10.326;2022-07-22T09:06:00;18.40;99.90
16674;DHT22;8450;52.654;10.326;2022-07-22T09:08:26;18.40;99.90
16674;DHT22;8450;52.654;10.326;2022-07-22T09:11:21;18.30;99.90
16674;DHT22;8450;52.654;10.326;2022-07-22T09:14:08;18.30;99.90
16674;DHT22;8450;52.654;10.326;2022-07-22T09:16:46;18.30;99.90
16674;DHT22;8450;52.654;10.326;2022-07-22T09:19:31;18.30;99.90
16674;DHT22;8450;52.654;10.326;2022-07-22T09:28:11;18.00;99.90
16674;DHT22;8450;52.654;10.326;2022-07-22T09:30:56;18.00;99.90
16674;DHT22;8450;52.654;10.326;2022-07-22T09:33:23;17.90;99.90
16674;DHT22;8450;52.654;10.326;2022-07-22T09:36:02;17.90;99.90
16674;DHT22;8450;52.654;10.326;2022-07-22T09:38:28;18.00;99.90
16674;DHT22;8450;52.654;10.326;2022-07-22T09:40:56;18.00;99.90
16674;DHT22;8450;52.654;10.326;2022-07-22T09:43:21;18.00;99.90
16674;DHT22;8450;52.654;10.326;2022-07-22T09:45:51;18.00;99.90
16674;DHT22;8450;52.654;10.326;2022-07-22T09:48:20;18.00;99.90
16674;DHT22;8450;52.654;10.326;2022-07-22T09:50:56;18.10;99.90
16674;DHT22;8450;52.654;10.326;2022-07-22T09:53:34;18.20;99.90
16674;DHT22;8450;52.654;10.326;2022-07-22T09:56:07;18.10;99.90
16674;DHT22;8450;52.654;10.326;2022-07-22T09:58:35;18.10;99.90
16674;DHT22;8450;52.654;10.326;2022-07-22T10:01:04;18.20;99.90
16674;DHT22;8450;52.654;10.326;2022-07-22T10:03:34;18.30;99.90
16674;DHT22;8450;52.654;10.326;2022-07-22T10:06:04;18.30;99.90
16674;DHT22;8450;52.654;10.326;2022-07-22T10:08:32;18.40;99.90
16674;DHT22;8450;52.654;10.326;2022-07-22T10:11:03;18.90;99.90
16674;DHT22;8450;52.654;10.326;2022-07-22T10:13:30;18.80;99.90
16674;DHT22;8450;52.654;10.326;2022-07-22T10:15:57;18.70;99.90
16674;DHT22;8450;52.654;10.326;2022-07-22T10:18:24;18.70;99.90
16674;DHT22;8450;52.654;10.326;2022-07-22T10:21:01;18.60;99.90
16674;DHT22;8450;52.654;10.326;2022-07-22T10:23:27;18.90;99.90
16674;DHT22;8450;52.654;10.326;2022-07-22T10:25:56;19.00;99.90
16674;DHT22;8450;52.654;10.326;2022-07-22T10:28:23;18.90;99.90
16674;DHT22;8450;52.654;10.326;2022-07-22T10:30:50;19.10;99.90
16674;DHT22;8450;52.654;10.326;2022-07-22T10:33:18;19.30;99.90
16674;DHT22;8450;52.654;10.326;2022-07-22T10:35:57;19.30;99.90
16674;DHT22;8450;52.654;10.326;2022-07-22T10:38:24;19.00;99.90
16674;DHT22;8450;52.654;10.326;2022-07-22T10:40:56;19.00;99.90
16674;DHT22;8450;52.654;10.326;2022-07-22T10:45:59;19.10;99.90
16674;DHT22;8450;52.654;10.326;2022-07-22T10:48:44;19.40;99.90
16674;DHT22;8450;52.654;10.326;2022-07-22T10:51:12;19.60;99.90
16674;DHT22;8450;52.654;10.326;2022-07-22T10:53:41;19.80;99.90
16674;DHT22;8450;52.654;10.326;2022-07-22T10:56:23;20.30;99.90
16674;DHT22;8450;52.654;10.326;2022-07-22T10:59:10;20.30;99.90
16674;DHT22;8450;52.654;10.326;2022-07-22T11:01:38;20.20;99.90
16674;DHT22;8450;52.654;10.326;2022-07-22T11:04:19;20.40;99.90
16674;DHT22;8450;52.654;10.326;2022-07-22T11:06:54;20.50;99.90
16674;DHT22;8450;52.654;10.326;2022-07-22T11:09:31;20.00;99.90
16674;DHT22;8450;52.654;10.326;2022-07-22T11:11:57;19.80;99.90
16674;DHT22;8450;52.654;10.326;2022-07-22T11:14:33;20.00;99.90
16674;DHT22;8450;52.654;10.326;2022-07-22T11:17:05;19.60;99.90
16674;DHT22;8450;52.654;10.326;2022-07-22T11:19:31;19.80;99.90
16674;DHT22;8450;52.654;10.326;2022-07-22T11:22:11;19.60;99.90
16674;DHT22;8450;52.654;10.326;2022-07-22T11:24:38;19.60;99.90
16674;DHT22;8450;52.654;10.326;2022-07-22T11:27:09;19.80;99.90
16674;DHT22;8450;52.654;10.326;2022-07-22T11:29:39;19.80;99.90
16674;DHT22;8450;52.654;10.326;2022-07-22T11:32:09;19.70;99.90
16674;DHT22;8450;52.654;10.326;2022-07-22T11:34:37;19.70;99.90
16674;DHT22;8450;52.654;10.326;2022-07-22T11:37:03;19.80;99.90
16674;DHT22;8450;52.654;10.326;2022-07-22T11:39:30;19.80;99.90
16674;DHT22;8450;52.654;10.326;2022-07-22T11:41:57;19.90;99.90
16674;DHT22;8450;52.654;10.326;2022-07-22T11:44:31;19.80;99.90
16674;DHT22;8450;52.654;10.326;2022-07-22T11:46:57;19.80;99.90
16674;DHT22;8450;52.654;10.326;2022-07-22T11:49:28;20.10;99.90
16674;DHT22;8450;52.654;10.326;2022-07-22T11:51:54;20.00;99.90
16674;DHT22;8450;52.654;10.326;2022-07-22T11:54:20;19.90;99.90
16674;DHT22;8450;52.654;10.326;2022-07-22T11:56:45;19.90;99.90
16674;DHT22;8450;52.654;10.326;2022-07-22T11:59:16;19.60;99.90
16674;DHT22;8450;52.654;10.326;2022-07-22T12:01:44;19.60;99.90
16674;DHT22;8450;52.654;10.326;2022-07-22T12:04:12;19.80;99.90
16674;DHT22;8450;52.654;10.326;2022-07-22T12:06:41;20.00;99.90
16674;DHT22;8450;52.654;10.326;2022-07-22T12:09:13;20.00;99.90
16674;DHT22;8450;52.654;10.326;2022-07-22T12:11:40;20.10;99.90
16674;DHT22;8450;52.654;10.326;2022-07-22T12:14:09;20.10;99.90
16674;DHT22;8450;52.654;10.326;2022-07-22T12:16:37;20.10;99.90
16674;DHT22;8450;52.654;10.326;2022-07-22T12:19:06;20.40;99.90
16674;DHT22;8450;52.654;10.326;2022-07-22T12:21:35;20.70;99.90
16674;DHT22;8450;52.654;10.326;2022-07-22T12:26:38;20.60;99.90
16674;DHT22;8450;52.654;10.326;2022-07-22T12:29:28;20.70;99.90
16674;DHT22;8450;52.654;10.326;2022-07-22T12:32:01;20.70;99.90
16674;DHT22;8450;52.654;10.326;2022-07-22T12:34:38;20.60;99.90
16674;DHT22;8450;52.654;10.326;2022-07-22T12:37:29;21.00;99.90
16674;DHT22;8450;52.654;10.326;2022-07-22T12:40:00;21.10;99.90
16674;DHT22;8450;52.654;10.326;2022-07-22T12:43:16;21.20;99.90
16674;DHT22;8450;52.654;10.326;2022-07-22T12:45:18;21.50;99.90
16674;DHT22;8450;52.654;10.326;2022-07-22T12:50:29;21.50;99.90
16674;DHT22;8450;52.654;10.326;2022-07-22T12:52:57;21.70;99.90
16674;DHT22;8450;52.654;10.326;2022-07-22T12:55:23;21.00;99.90
16674;DHT22;8450;52.654;10.326;2022-07-22T12:57:49;21.10;99.90
16674;DHT22;8450;52.654;10.326;2022-07-22T13:00:36;21.30;99.90
16674;DHT22;8450;52.654;10.326;2022-07-22T13:03:02;21.70;99.90
16674;DHT22;8450;52.654;10.326;2022-07-22T13:05:28;21.80;99.90
16674;DHT22;8450;52.654;10.326;2022-07-22T13:07:53;21.60;99.90
16674;DHT22;8450;52.654;10.326;2022-07-22T13:10:23;22.10;99.90
16674;DHT22;8450;52.654;10.326;2022-07-22T13:12:50;21.60;99.90
16674;DHT22;8450;52.654;10.326;2022-07-22T13:15:16;22.00;99.90
16674;DHT22;8450;52.654;10.326;2022-07-22T13:17:42;21.90;99.90
16674;DHT22;8450;52.654;10.326;2022-07-22T13:20:09;21.80;99.90
16674;DHT22;8450;52.654;10.326;2022-07-22T13:22:35;22.30;99.90
16674;DHT22;8450;52.654;10.326;2022-07-22T13:25:01;22.60;99.90
16674;DHT22;8450;52.654;10.326;2022-07-22T13:27:27;22.30;99.90
16674;DHT22;8450;52.654;10.326;2022-07-22T13:29:52;22.10;99.90
16674;DHT22;8450;52.654;10.326;2022-07-22T13:32:18;21.10;99.90
16674;DHT22;8450;52.654;10.326;2022-07-22T13:34:44;21.50;99.90
16674;DHT22;8450;52.654;10.326;2022-07-22T13:37:09;21.70;99.90
16674;DHT22;8450;52.654;10.326;2022-07-22T13:39:36;21.70;99.90
16674;DHT22;8450;52.654;10.326;2022-07-22T13:42:02;20.90;99.90
16674;DHT22;8450;52.654;10.326;2022-07-22T13:44:27;21.10;99.90
16674;DHT22;8450;52.654;10.326;2022-07-22T13:46:53;21.00;99.90
16674;DHT22;8450;52.654;10.326;2022-07-22T13:49:20;21.50;99.90
16674;DHT22;8450;52.654;10.326;2022-07-22T13:51:47;21.60;99.90
16674;DHT22;8450;52.654;10.326;2022-07-22T13:54:13;21.20;99.90
16674;DHT22;8450;52.654;10.326;2022-07-22T13:56:39;21.50;99.90
16674;DHT22;8450;52.654;10.326;2022-07-22T13:59:04;21.80;99.90
16674;DHT22;8450;52.654;10.326;2022-07-22T14:01:30;21.90;99.90
16674;DHT22;8450;52.654;10.326;2022-07-22T14:03:57;21.60;99.90
16674;DHT22;8450;52.654;10.326;2022-07-22T14:06:22;21.50;99.90
16674;DHT22;8450;52.654;10.326;2022-07-22T14:08:48;20.90;99.90
16674;DHT22;8450;52.654;10.326;2022-07-22T14:11:14;20.70;99.90
16674;DHT22;8450;52.654;10.326;2022-07-22T14:13:39;20.80;99.90
16674;DHT22;8450;52.654;10.326;2022-07-22T14:16:05;21.00;99.90
16674;DHT22;8450;52.654;10.326;2022-07-22T14:18:49;21.50;99.90
16674;DHT22;8450;52.654;10.326;2022-07-22T14:21:15;21.50;99.90
16674;DHT22;8450;52.654;10.326;2022-07-22T14:23:40;21.70;99.90
16674;DHT22;8450;52.654;10.326;2022-07-22T14:26:06;20.90;99.90
16674;DHT22;8450;52.654;10.326;2022-07-22T14:28:31;20.90;99.90
16674;DHT22;8450;52.654;10.326;2022-07-22T14:30:57;20.90;99.90
16674;DHT22;8450;52.654;10.326;2022-07-22T14:33:23;21.10;99.90
16674;DHT22;8450;52.654;10.326;2022-07-22T14:35:48;21.30;99.90
16674;DHT22;8450;52.654;10.326;2022-07-22T14:38:14;21.20;99.90
16674;DHT22;8450;52.654;10.326;2022-07-22T14:40:39;20.90;99.90
16674;DHT22;8450;52.654;10.326;2022-07-22T14:43:05;20.80;99.90
16674;DHT22;8450;52.654;10.326;2022-07-22T14:45:30;21.30;99.90
16674;DHT22;8450;52.654;10.326;2022-07-22T14:47:56;21.30;99.90
16674;DHT22;8450;52.654;10.326;2022-07-22T14:50:21;21.30;99.90
16674;DHT22;8450;52.654;10.326;2022-07-22T14:52:47;21.00;99.90
16674;DHT22;8450;52.654;10.326;2022-07-22T14:55:13;21.10;99.90
16674;DHT22;8450;52.654;10.326;2022-07-22T14:57:38;21.20;99.90
16674;DHT22;8450;52.654;10.326;2022-07-22T15:00:05;21.30;99.90
16674;DHT22;8450;52.654;10.326;2022-07-22T15:02:30;21.00;99.90
16674;DHT22;8450;52.654;10.326;2022-07-22T15:04:56;21.00;99.90
16674;DHT22;8450;52.654;10.326;2022-07-22T15:07:22;21.00;99.90
16674;DHT22;8450;52.654;10.326;2022-07-22T15:09:47;21.10;99.90
16674;DHT22;8450;52.654;10.326;2022-07-22T15:12:13;21.30;99.90
16674;DHT22;8450;52.654;10.326;2022-07-22T15:14:38;21.50;99.90
16674;DHT22;8450;52.654;10.326;2022-07-22T15:17:04;21.30;99.90
16674;DHT22;8450;52.654;10.326;2022-07-22T15:19:30;21.30;99.90
16674;DHT22;8450;52.654;10.326;2022-07-22T15:21:55;21.30;99.90
16674;DHT22;8450;52.654;10.326;2022-07-22T15:24:21;21.20;99.90
16674;DHT22;8450;52.654;10.326;2022-07-22T15:26:47;21.10;99.90
16674;DHT22;8450;52.654;10.326;2022-07-22T15:29:12;20.80;99.90
16674;DHT22;8450;52.654;10.326;2022-07-22T15:31:38;20.60;99.90
16674;DHT22;8450;52.654;10.326;2022-07-22T15:34:03;20.50;99.90
16674;DHT22;8450;52.654;10.326;2022-07-22T15:36:29;20.50;99.90
16674;DHT22;8450;52.654;10.326;2022-07-22T15:38:55;20.50;99.90
16674;DHT22;8450;52.654;10.326;2022-07-22T15:41:20;20.40;99.90
16674;DHT22;8450;52.654;10.326;2022-07-22T15:43:47;20.70;99.90
16674;DHT22;8450;52.654;10.326;2022-07-22T15:46:12;20.70;99.90
16674;DHT22;8450;52.654;10.326;2022-07-22T15:48:38;20.90;99.90
16674;DHT22;8450;52.654;10.326;2022-07-22T15:51:05;21.10;99.90
16674;DHT22;8450;52.654;10.326;2022-07-22T15:53:31;21.20;99.90
16674;DHT22;8450;52.654;10.326;2022-07-22T15:55:57;21.00;99.90
16674;DHT22;8450;52.654;10.326;2022-07-22T15:58:23;21.00;99.90
16674;DHT22;8450;52.654;10.326;2022-07-22T16:01:07;21.00;99.90
16674;DHT22;8450;52.654;10.326;2022-07-22T16:03:33;20.50;99.90
16674;DHT22;8450;52.654;10.326;2022-07-22T16:05:59;20.50;99.90
16674;DHT22;8450;52.654;10.326;2022-07-22T16:08:26;20.50;99.90
16674;DHT22;8450;52.654;10.326;2022-07-22T16:10:52;20.50;99.90
16674;DHT22;8450;52.654;10.326;2022-07-22T16:13:18;20.60;99.90
16674;DHT22;8450;52.654;10.326;2022-07-22T16:15:45;20.80;99.90
16674;DHT22;8450;52.654;10.326;2022-07-22T16:18:10;20.80;99.90
16674;DHT22;8450;52.654;10.326;2022-07-22T16:20:40;20.80;99.90
16674;DHT22;8450;52.654;10.326;2022-07-22T16:23:05;20.60;99.90
16674;DHT22;8450;52.654;10.326;2022-07-22T16:25:31;20.60;99.90
16674;DHT22;8450;52.654;10.326;2022-07-22T16:27:57;20.70;99.90
16674;DHT22;8450;52.654;10.326;2022-07-22T16:30:22;20.60;99.90
16674;DHT22;8450;52.654;10.326;2022-07-22T16:32:48;20.50;99.90
16674;DHT22;8450;52.654;10.326;2022-07-22T16:35:13;20.50;99.90
16674;DHT22;8450;52.654;10.326;2022-07-22T16:37:40;20.40;99.90
16674;DHT22;8450;52.654;10.326;2022-07-22T16:40:06;20.30;99.90
16674;DHT22;8450;52.654;10.326;2022-07-22T16:42:32;20.30;99.90
16674;DHT22;8450;52.654;10.326;2022-07-22T16:44:58;20.10;99.90
16674;DHT22;8450;52.654;10.326;2022-07-22T16:47:24;20.20;99.90
16674;DHT22;8450;52.654;10.326;2022-07-22T16:49:49;20.20;99.90
16674;DHT22;8450;52.654;10.326;2022-07-22T16:52:15;20.30;99.90
16674;DHT22;8450;52.654;10.326;2022-07-22T16:54:40;20.20;99.90
16674;DHT22;8450;52.654;10.326;2022-07-22T16:57:06;20.00;99.90
16674;DHT22;8450;52.654;10.326;2022-07-22T16:59:31;20.00;99.90
16674;DHT22;8450;52.654;10.326;2022-07-22T17:01:57;20.20;99.90
16674;DHT22;8450;52.654;10.326;2022-07-22T17:04:22;19.80;99.90
16674;DHT22;8450;52.654;10.326;2022-07-22T17:06:48;19.70;99.90
16674;DHT22;8450;52.654;10.326;2022-07-22T17:09:15;19.70;99.90
16674;DHT22;8450;52.654;10.326;2022-07-22T17:11:40;19.90;99.90
16674;DHT22;8450;52.654;10.326;2022-07-22T17:14:06;19.80;99.90
16674;DHT22;8450;52.654;10.326;2022-07-22T17:16:31;19.60;99.90
16674;DHT22;8450;52.654;10.326;2022-07-22T17:18:57;19.60;99.90
16674;DHT22;8450;52.654;10.326;2022-07-22T17:21:22;19.50;99.90
16674;DHT22;8450;52.654;10.326;2022-07-22T17:23:48;19.50;99.90
16674;DHT22;8450;52.654;10.326;2022-07-22T17:26:14;19.50;99.90
16674;DHT22;8450;52.654;10.326;2022-07-22T17:28:39;19.50;99.90
16674;DHT22;8450;52.654;10.326;2022-07-22T17:31:08;19.40;99.90
16674;DHT22;8450;52.654;10.326;2022-07-22T17:33:34;19.40;99.90
16674;DHT22;8450;52.654;10.326;2022-07-22T17:36:00;19.50;99.90
16674;DHT22;8450;52.654;10.326;2022-07-22T17:38:25;19.50;99.90
16674;DHT22;8450;52.654;10.326;2022-07-22T17:40:51;19.50;99.90
16674;DHT22;8450;52.654;10.326;2022-07-22T17:43:17;19.50;99.90
16674;DHT22;8450;52.654;10.326;2022-07-22T17:45:42;19.50;99.90
16674;DHT22;8450;52.654;10.326;2022-07-22T17:48:08;19.50;99.90
16674;DHT22;8450;52.654;10.326;2022-07-22T17:50:36;19.50;99.90
16674;DHT22;8450;52.654;10.326;2022-07-22T17:53:05;19.50;99.90
16674;DHT22;8450;52.654;10.326;2022-07-22T17:55:31;19.40;99.90
16674;DHT22;8450;52.654;10.326;2022-07-22T17:57:57;19.40;99.90
16674;DHT22;8450;52.654;10.326;2022-07-22T18:00:22;19.40;99.90
16674;DHT22;8450;52.654;10.326;2022-07-22T18:02:48;19.30;99.90
16674;DHT22;8450;52.654;10.326;2022-07-22T18:05:14;19.30;99.90
16674;DHT22;8450;52.654;10.326;2022-07-22T18:07:39;19.10;99.90
16674;DHT22;8450;52.654;10.326;2022-07-22T18:10:06;19.10;99.90
16674;DHT22;8450;52.654;10.326;2022-07-22T18:12:33;19.00;99.90
16674;DHT22;8450;52.654;10.326;2022-07-22T18:14:58;19.00;99.90
